Terminal Aerodrome Forecast
Issued by NWS

Home | Current Version | Previous Version | Text Only | Print | Product List | Glossary On
Versions: 1 2 3 4 5 6 7 8 9 10 11 12
000
FTAK31 PAJN 231746
TAFAGY
TAF
PAGY 231746Z 2318/2418 VRB04KT P6SM -RA SCT020 OVC040 WS015/16030KT
      TEMPO 2318/2319 4SM -RA BR FEW012 BKN020 OVC040
     FM231900 21010KT 3SM RA BR BKN020 OVC040 WS015/16030KT
     FM232100 21012G22KT 4SM -RA BR BKN020 OVC030
     FM240300 21015G25KT P6SM -SHRA BKN030 OVC050
     FM240900 21010KT P6SM -SHRA BKN030 OVC050
      AMD LTD TO CLD VIS AND WIND=

USA.gov is the U.S. government's official web portal to all federal, state and local government web resources and services.